Weather observations for the past three days for
Oceanside, Camp Pendleton, Marine Corps Air Station
| Date | Time (pdt) | Wind (mph) | Vis. (mi.) | Weather | Sky Cond. | Temperature (ºF) | Relative Humidity | Wind Chill (°F) | Heat Index (°F) | Pressure | Precipitation (in) | ||||||
|---|---|---|---|---|---|---|---|---|---|---|---|---|---|---|---|---|---|
| Air | Dwpt | 6 hour | altimeter (in) | sea level (mb) | 1 hr | 3 hr | 6 hr | ||||||||||
| Max. | Min. | ||||||||||||||||
| 10 | 13:52 | SW 8 | 10.00 | Fair | CLR | 72 | 59 | 64% | 29.93 | 1013.4 | |||||||
| 10 | 12:52 | SW 10 | 10.00 | Fair | CLR | 73 | 57.9 | 59% | 29.93 | 1013.4 | |||||||
| 10 | 10:52 | S 7 | 10.00 | Fair | CLR | 71.1 | 59 | 71.1 | 59 | 66% | 29.93 | 1013.6 | |||||
| 10 | 09:52 | Calm | 10.00 | Partly Cloudy | SCT012 | 66.9 | 57 | 71% | 29.94 | 1013.6 | |||||||
| 10 | 08:52 | Calm | 10.00 | Overcast | OVC008 | 61 | 57 | 87% | 29.93 | 1013.5 | |||||||
| 10 | 06:52 | NE 5 | 8.00 | Overcast | OVC007 | 59 | 57 | 93% | 29.92 | 1013.0 | |||||||
| 10 | 05:52 | N 6 | 9.00 | Overcast | OVC007 | 59 | 57 | 93% | 29.91 | 1012.6 | |||||||
| 10 | 04:52 | E 3 | 9.00 | Overcast | OVC008 | 60.1 | 57 | 61 | 59 | 90% | 29.9 | 1012.5 | |||||
| 10 | 02:52 | E 3 | 10.00 | Overcast | OVC010 | 61 | 57 | 87% | 29.91 | 1012.7 | |||||||
| 10 | 01:52 | NE 3 | 10.00 | Overcast | OVC011 | 61 | 57 | 87% | 29.91 | 1012.8 | |||||||
| 10 | 00:52 | E 5 | 10.00 | Overcast | OVC012 | 60.1 | 57 | 90% | 29.92 | 1013.2 | |||||||
| 09 | 23:52 | NE 5 | 10.00 | Overcast | OVC011 | 60.1 | 55.9 | 86% | 29.93 | 1013.4 | |||||||
| 09 | 22:52 | NE 3 | 10.00 | Overcast | OVC011 | 59 | 55.9 | 69.1 | 55.9 | 90% | 29.93 | 1013.5 | |||||
| 09 | 20:52 | Calm | 10.00 | Fair | CLR | 59 | 55.9 | 90% | 29.92 | 1013.0 | |||||||
| 09 | 19:52 | Calm | 10.00 | A Few Clouds | FEW012 | 61 | 57 | 87% | 29.9 | 1012.4 | |||||||
| 09 | 18:52 | Vrbl 6 | 10.00 | Fair | CLR | 64 | 57 | 78% | 29.89 | 1012.0 | |||||||
| 09 | 17:52 | SW 8 | 10.00 | Fair | CLR | 66 | 57.9 | 75% | 29.89 | 1011.9 | |||||||
| 09 | 16:52 | SW 7 | 10.00 | Fair | CLR | 69.1 | 57.9 | 75 | 69.1 | 68% | 29.88 | 1011.7 | |||||
| 09 | 15:52 | SW 8 G 17 | 10.00 | Fair | CLR | 70 | 57.9 | 66% | 29.88 | 1011.8 | |||||||
| 09 | 14:52 | SW 13 | 10.00 | Fair | CLR | 71.1 | 57.9 | 63% | 29.89 | 1012.1 | |||||||
| 09 | 13:52 | SW 9 G 21 | 10.00 | Fair | CLR | 73 | 57.9 | 59% | 29.9 | 1012.5 | |||||||
| 09 | 12:52 | SW 8 G 18 | 10.00 | Fair | CLR | 72 | 57.9 | 61% | 29.91 | 1012.9 | |||||||
| 09 | 11:52 | SW 12 G 20 | 10.00 | Fair | CLR | 73 | 59 | 62% | 29.92 | 1013.1 | |||||||
| 09 | 10:52 | Vrbl 5 | 10.00 | Fair | CLR | 73 | 57.9 | 73 | 60.1 | 59% | 29.92 | 1013.2 | |||||
| 09 | 09:52 | Calm | 10.00 | A Few Clouds | FEW017 | 69.1 | 57.9 | 68% | 29.93 | 1013.6 | |||||||
| 09 | 07:52 | NE 6 | 10.00 | Overcast | OVC013 | 61 | 57 | 87% | 29.94 | 1013.9 | |||||||
| 09 | 06:52 | NE 6 | 10.00 | Overcast | OVC013 | 60.1 | 57 | 90% | 29.94 | 1013.6 | |||||||
| 09 | 05:52 | NE 6 | 10.00 | Overcast | OVC012 | 60.1 | 57 | 90% | 29.93 | 1013.4 | |||||||
| 09 | 04:52 | NE 6 | 10.00 | Overcast | OVC012 | 60.1 | 57 | 62.1 | 60.1 | 90% | 29.92 | 1013.2 | |||||
| 09 | 03:52 | NE 5 | 10.00 | Overcast | OVC011 | 61 | 57.9 | 90% | 29.93 | 1013.3 | |||||||
| 09 | 02:52 | NE 3 | 10.00 | Overcast | OVC011 | 62.1 | 57.9 | 86% | 29.93 | 1013.5 | |||||||
| 09 | 01:52 | NE 3 | 10.00 | Overcast | OVC010 | 62.1 | 57.9 | 86% | 29.94 | 1013.8 | |||||||
| 09 | 00:52 | Calm | 10.00 | Overcast | OVC010 | 62.1 | 57.9 | 86% | 29.96 | 1014.3 | |||||||
| 08 | 22:52 | Calm | 10.00 | Overcast | OVC010 | 61 | 57.9 | 71.1 | 61 | 90% | 29.97 | 1014.8 | |||||
| 08 | 21:52 | Calm | 10.00 | Overcast | OVC010 | 61 | 57.9 | 90% | 29.97 | 1014.8 | |||||||
| 08 | 20:52 | Calm | 10.00 | Overcast | OVC010 | 61 | 57.9 | 90% | 29.96 | 1014.5 | |||||||
| 08 | 18:52 | SW 8 | 10.00 | Fair | CLR | 64 | 57.9 | 81% | 29.93 | 1013.4 | |||||||
| 08 | 17:52 | SW 8 | 10.00 | Fair | CLR | 68 | 57.9 | 70% | 29.92 | 1013.2 | |||||||
| 08 | 16:52 | SW 8 | 10.00 | Fair | CLR | 72 | 59 | 73.9 | 68 | 64% | 29.92 | 1013.2 | |||||
| 08 | 15:52 | W 9 G 20 | 10.00 | Fair | CLR | 71.1 | 59 | 66% | 29.94 | 1013.7 | |||||||
| 08 | 12:52 | SW 9 G 16 | 10.00 | Fair | CLR | 73 | 59 | 62% | 29.97 | 1014.6 | |||||||
| 08 | 11:52 | S 8 | 10.00 | A Few Clouds | FEW020 | 72 | 59 | 64% | 29.99 | 1015.4 | |||||||
| 08 | 10:52 | Vrbl 3 | 10.00 | Mostly Cloudy | BKN016 | 68 | 57.9 | 68 | 61 | 70% | 30.01 | 1016.0 | |||||
| 08 | 09:52 | Calm | 10.00 | Overcast | OVC013 | 63 | 57.9 | 84% | 30.02 | 1016.3 | |||||||
| 08 | 08:52 | Calm | 10.00 | Overcast | OVC012 | 62.1 | 57.9 | 86% | 30.02 | 1016.5 | |||||||
| 08 | 07:52 | Calm | 10.00 | Overcast | OVC011 | 61 | 57.9 | 90% | 30.02 | 1016.5 | |||||||
| 08 | 06:52 | NE 3 | 10.00 | Overcast | OVC012 | 61 | 57.9 | 90% | 30.01 | 1016.2 | |||||||
| 08 | 05:52 | Calm | 10.00 | Overcast | OVC011 | 61 | 57.9 | 90% | 30 | 1015.9 | |||||||
| 08 | 04:52 | Calm | 10.00 | Overcast | OVC012 | 61 | 57.9 | 62.1 | 61 | 90% | 30 | 1015.7 | |||||
| 08 | 02:52 | Calm | 10.00 | Overcast | OVC012 | 62.1 | 57 | 84% | 30 | 1015.6 | |||||||
| 08 | 01:52 | S 5 | 10.00 | Overcast | OVC012 | 62.1 | 57.9 | 86% | 30 | 1015.9 | |||||||
| 08 | 00:52 | E 3 | 10.00 | Overcast | OVC012 | 62.1 | 57.9 | 86% | 30.01 | 1016.3 | |||||||
| 07 | 23:52 | Calm | 10.00 | Overcast | OVC012 | 62.1 | 57.9 | 86% | 30.02 | 1016.6 | |||||||
| 07 | 20:52 | W 3 | 10.00 | Mostly Cloudy | BKN011 | 61 | 57 | 87% | 30 | 1015.7 | |||||||
| 07 | 18:52 | SW 5 | 10.00 | Fair | CLR | 63 | 57 | 81% | 29.97 | 1014.6 | |||||||
| 07 | 17:52 | SW 8 | 10.00 | Fair | CLR | 64.9 | 57 | 76% | 29.96 | 1014.5 | |||||||
| 07 | 16:52 | SW 8 | 10.00 | Fair | CLR | 68 | 57.9 | 71.1 | 66.9 | 70% | 29.96 | 1014.3 | |||||
| 07 | 15:52 | SW 8 G 18 | 10.00 | Fair | CLR | 68 | 57.9 | 70% | 29.96 | 1014.4 | |||||||
| 07 | 14:52 | SW 9 | 10.00 | Fair | CLR | 69.1 | 57.9 | 68% | 29.97 | 1014.7 | |||||||
| Date | Time (pdt) | Wind (mph) | Vis. (mi.) | Weather | Sky Cond. | Air | Dwpt | Max. | Min. | Relative Humidity | Wind Chill (°F) | Heat Index (°F) | altimeter (in) | sea level (mb) | 1 hr | 3 hr | 6 hr |
| 6 hour | |||||||||||||||||
| Temperature (ºF) | Pressure | Precipitation (in) | |||||||||||||||